Nearby METAR Reports

 

KSJC - San Jose, California, USA
Distance from station: NE 14km
Aktualizace: 16/07/2018 11:53
Jasno
Jasno
 Wind from NW
Vítr: NW 7 km/h
Teplota: 16°C
Rosný bod: 13°C
Vlhkost: 83%
Tlak: 1014.9 hPa
Clouds: Jasno
Visibility: 16 km
2018/07/16 09:53 KSJC 160953Z AUTO 31004KT 10SM CLR 16/13 A2997 RMK AO2 SLP147 T01610133
KNUQ - Moffett Nas/Mtn, California, USA
Distance from station: N 14km
Aktualizace: 16/07/2018 11:56
Zataženo
Zataženo
 Wind from N
Vítr: N 11 km/h
Teplota: 15°C
Rosný bod: 14°C
Vlhkost: 94%
Tlak: 1015.2 hPa
Clouds: Zataženo
Visibility: 16 km
Cloud details: Zataženo 335 m
2018/07/16 09:56 KNUQ 160956Z AUTO 36006KT 10SM OVC011 15/14 A2998 RMK AO2 SLP153 T01500139
 
KPAO - Palo Alto, California, USA
Distance from station: NNW 23km
Aktualizace: 16/07/2018 05:47
Neaktuální
Jasno
Jasno
 Wind from NNW
Vítr: NNW 19 km/h
Tlak: 1014.6 hPa
Clouds: Jasno
Visibility: 16 km
2018/07/16 03:47 KPAO 160347Z 33010KT 10SM SKC A2996 RMK LAST
KRHV - San Jose/Reid, California, USA
Distance from station: ENE 19km
Aktualizace: 16/07/2018 06:48
Neaktuální
Jasno
Jasno
 Wind from NNW
Vítr: NNW 11 km/h
Teplota: 18°C
Rosný bod: 14°C
Vlhkost: 78%
Tlak: 1014.2 hPa
Clouds: Jasno
Visibility: 13 km
2018/07/16 04:48 KRHV 160448Z 33006KT 8SM SKC 18/14 A2995 RMK LAST
 
KOAK - Oakland, California, USA
Distance from station: NNW 50km
Aktualizace: 16/07/2018 11:53
Zataženo
Zataženo
 Wind from WNW
Vítr: WNW 17 km/h
Teplota: 14°C
Rosný bod: 13°C
Vlhkost: 94%
Tlak: 1015.2 hPa
Clouds: Zataženo
Visibility: 16 km
Cloud details: Zataženo 274 m
2018/07/16 09:53 KOAK 160953Z 30009KT 10SM OVC009 14/13 A2998 RMK AO2 CIG 008V013 SLP150 T01390128
KSQL - San Carlos Airpo, California, USA
Distance from station: NW 34km
Aktualizace: 16/07/2018 12:00
Skoro zataženo
Skoro zataženo
 Wind from NW
Vítr: NW 11 km/h
Teplota: 14°C
Rosný bod: 12°C
Vlhkost: 88%
Tlak: 1014.9 hPa
Clouds: Skoro zataženo
Visibility: 16 km
Cloud details: Skoro zataženo 396 m
2018/07/16 10:00 KSQL 161000Z AUTO 31006KT 10SM BKN013 14/12 A2997 RMK AO2
 
KSFO - San Francisco, California, USA
Distance from station: NW 49km
Aktualizace: 16/07/2018 11:56
Few Clouds
Few Clouds
 Wind from W
Vítr: W 19 km/h
Teplota: 14°C
Rosný bod: 12°C
Vlhkost: 88%
Tlak: 1014.9 hPa
Clouds: Few Clouds
Visibility: 16 km
Cloud details: Few Clouds 274 m
2018/07/16 09:56 KSFO 160956Z 28010KT 10SM FEW009 14/12 A2997 RMK AO2 SLP149 T01390117
KE16 - San Martin, California, USA
Distance from station: ESE 43km
Aktualizace: 16/07/2018 11:55
Skoro zataženo
Skoro zataženo
 Wind from SSE
Vítr: SSE 6 km/h
Teplota: 14°C
Rosný bod: 12°C
Vlhkost: 88%
Tlak: 1015.6 hPa
Clouds: Skoro zataženo
Visibility: 16 km
Cloud details: Few Clouds 427 m
Skoro zataženo 1463 m
2018/07/16 09:55 KE16 160955Z AUTO 15003KT 10SM FEW014 BKN048 14/12 A2999 RMK AO2
 
KWVI - Watsonville, California, USA
Distance from station: SSE 44km
Aktualizace: 16/07/2018 11:53
Zataženo
Zataženo
 Wind from E
Vítr: E 7 km/h
Teplota: 13°C
Rosný bod: 13°C
Vlhkost: 100%
Tlak: 1015.6 hPa
Clouds: Zataženo
Visibility: 13 km
Cloud details: Zataženo 122 m
2018/07/16 09:53 KWVI 160953Z AUTO 09004KT 8SM OVC004 13/13 A2999 RMK AO2 SLP155 T01330133
KHAF - Half Moon Bay, California, USA
Distance from station: WNW 50km
Aktualizace: 16/07/2018 12:00
Zataženo
Zataženo
 Wind from calm
Vítr: Klidny
Teplota: 13°C
Rosný bod: 12°C
Vlhkost: 94%
Tlak: 1015.9 hPa
Clouds: Zataženo
Visibility: 13 km
Cloud details: Zataženo 152 m
2018/07/16 10:00 KHAF 161000Z AUTO 00000KT 8SM OVC005 13/12 A3000 RMK AO2
 
KHWD - Hayward, California, USA
Distance from station: N 44km
Aktualizace: 16/07/2018 11:54
Zataženo
Zataženo
 Wind from NNW
Vítr: NNW 15 km/h
Teplota: 15°C
Rosný bod: 12°C
Vlhkost: 82%
Tlak: 1014.9 hPa
Clouds: Zataženo
Visibility: 16 km
Cloud details: Zataženo 305 m
2018/07/16 09:54 KHWD 160954Z 33008KT 10SM OVC010 15/12 A2997 RMK AO2 SLP158 T01500117
KLVK - Livermore, California, USA
Distance from station: NNE 51km
Aktualizace: 16/07/2018 11:53
Jasno
Jasno
 Wind from WNW
Vítr: WNW 15 km/h
Teplota: 16°C
Rosný bod: 11°C
Vlhkost: 72%
Tlak: 1013.9 hPa
Clouds: Jasno
Visibility: 16 km
2018/07/16 09:53 KLVK 160953Z AUTO 30008KT 10SM CLR 16/11 A2994 RMK AO2 SLP135 T01560111